sensor_id;sensor_type;location;lat;lon;timestamp;temperature;humidity
26051;DHT22;13825;53.496;10.020;2024-01-30T00:01:58;2.10;99.90
26051;DHT22;13825;53.496;10.020;2024-01-30T00:04:24;2.10;99.90
26051;DHT22;13825;53.496;10.020;2024-01-30T00:06:51;2.20;99.90
26051;DHT22;13825;53.496;10.020;2024-01-30T00:09:19;2.00;1.00
26051;DHT22;13825;53.496;10.020;2024-01-30T00:11:46;2.20;1.00
26051;DHT22;13825;53.496;10.020;2024-01-30T00:14:13;2.20;99.90
26051;DHT22;13825;53.496;10.020;2024-01-30T00:16:41;2.10;99.90
26051;DHT22;13825;53.496;10.020;2024-01-30T00:19:09;2.10;99.90
26051;DHT22;13825;53.496;10.020;2024-01-30T00:21:36;2.10;99.90
26051;DHT22;13825;53.496;10.020;2024-01-30T00:24:02;2.00;99.90
26051;DHT22;13825;53.496;10.020;2024-01-30T00:26:29;2.00;99.90
26051;DHT22;13825;53.496;10.020;2024-01-30T00:28:56;2.10;99.90
26051;DHT22;13825;53.496;10.020;2024-01-30T00:31:23;2.00;99.90
26051;DHT22;13825;53.496;10.020;2024-01-30T00:33:49;2.00;99.90
26051;DHT22;13825;53.496;10.020;2024-01-30T00:36:18;1.80;99.90
26051;DHT22;13825;53.496;10.020;2024-01-30T00:38:44;2.10;99.90
26051;DHT22;13825;53.496;10.020;2024-01-30T00:41:11;1.80;99.90
26051;DHT22;13825;53.496;10.020;2024-01-30T00:43:38;1.80;99.90
26051;DHT22;13825;53.496;10.020;2024-01-30T00:46:05;1.80;99.90
26051;DHT22;13825;53.496;10.020;2024-01-30T00:48:31;1.80;99.90
26051;DHT22;13825;53.496;10.020;2024-01-30T00:50:58;1.80;99.90
26051;DHT22;13825;53.496;10.020;2024-01-30T00:53:26;1.80;1.00
26051;DHT22;13825;53.496;10.020;2024-01-30T00:55:53;1.80;1.00
26051;DHT22;13825;53.496;10.020;2024-01-30T00:58:20;1.80;99.90
26051;DHT22;13825;53.496;10.020;2024-01-30T01:00:47;1.80;99.90
26051;DHT22;13825;53.496;10.020;2024-01-30T01:03:13;1.80;99.90
26051;DHT22;13825;53.496;10.020;2024-01-30T01:05:40;1.80;99.90
26051;DHT22;13825;53.496;10.020;2024-01-30T01:08:07;1.80;99.90
26051;DHT22;13825;53.496;10.020;2024-01-30T01:10:35;1.80;99.90
26051;DHT22;13825;53.496;10.020;2024-01-30T01:13:02;1.80;99.90
26051;DHT22;13825;53.496;10.020;2024-01-30T01:15:29;1.80;99.90
26051;DHT22;13825;53.496;10.020;2024-01-30T01:17:57;1.80;99.90
26051;DHT22;13825;53.496;10.020;2024-01-30T01:20:23;1.80;99.90
26051;DHT22;13825;53.496;10.020;2024-01-30T01:22:50;1.90;1.00
26051;DHT22;13825;53.496;10.020;2024-01-30T01:25:17;1.80;1.00
26051;DHT22;13825;53.496;10.020;2024-01-30T01:27:46;1.80;1.00
26051;DHT22;13825;53.496;10.020;2024-01-30T01:30:17;1.80;1.00
26051;DHT22;13825;53.496;10.020;2024-01-30T01:32:47;1.80;1.00
26051;DHT22;13825;53.496;10.020;2024-01-30T01:35:20;1.80;1.00
26051;DHT22;13825;53.496;10.020;2024-01-30T01:37:48;1.80;1.00
26051;DHT22;13825;53.496;10.020;2024-01-30T01:40:20;2.00;1.00
26051;DHT22;13825;53.496;10.020;2024-01-30T01:42:48;1.80;1.00
26051;DHT22;13825;53.496;10.020;2024-01-30T01:45:15;2.00;1.00
26051;DHT22;13825;53.496;10.020;2024-01-30T01:47:42;1.80;1.00
26051;DHT22;13825;53.496;10.020;2024-01-30T01:50:11;1.80;1.00
26051;DHT22;13825;53.496;10.020;2024-01-30T01:52:38;1.80;1.00
26051;DHT22;13825;53.496;10.020;2024-01-30T01:55:05;1.90;1.00
26051;DHT22;13825;53.496;10.020;2024-01-30T01:57:34;1.90;1.00
26051;DHT22;13825;53.496;10.020;2024-01-30T02:00:03;1.80;1.00
26051;DHT22;13825;53.496;10.020;2024-01-30T02:02:30;1.80;99.90
26051;DHT22;13825;53.496;10.020;2024-01-30T02:04:57;1.80;99.90
26051;DHT22;13825;53.496;10.020;2024-01-30T02:07:24;1.80;99.90
26051;DHT22;13825;53.496;10.020;2024-01-30T02:09:51;1.80;99.90
26051;DHT22;13825;53.496;10.020;2024-01-30T02:12:18;1.80;99.90
26051;DHT22;13825;53.496;10.020;2024-01-30T02:14:44;1.90;99.90
26051;DHT22;13825;53.496;10.020;2024-01-30T02:17:13;1.90;99.90
26051;DHT22;13825;53.496;10.020;2024-01-30T02:19:40;1.90;99.90
26051;DHT22;13825;53.496;10.020;2024-01-30T02:22:08;1.90;99.90
26051;DHT22;13825;53.496;10.020;2024-01-30T02:24:35;1.90;1.00
26051;DHT22;13825;53.496;10.020;2024-01-30T02:27:02;1.90;1.00
26051;DHT22;13825;53.496;10.020;2024-01-30T02:29:29;2.00;1.00
26051;DHT22;13825;53.496;10.020;2024-01-30T02:31:56;2.10;1.00
26051;DHT22;13825;53.496;10.020;2024-01-30T02:34:23;2.10;1.00
26051;DHT22;13825;53.496;10.020;2024-01-30T02:36:50;2.00;1.00
26051;DHT22;13825;53.496;10.020;2024-01-30T02:39:18;2.00;1.00
26051;DHT22;13825;53.496;10.020;2024-01-30T02:41:45;2.00;1.00
26051;DHT22;13825;53.496;10.020;2024-01-30T02:44:11;2.10;1.00
26051;DHT22;13825;53.496;10.020;2024-01-30T02:46:38;2.10;1.00
26051;DHT22;13825;53.496;10.020;2024-01-30T02:49:05;2.00;1.00
26051;DHT22;13825;53.496;10.020;2024-01-30T02:51:32;2.20;1.00
26051;DHT22;13825;53.496;10.020;2024-01-30T02:53:59;1.90;1.00
26051;DHT22;13825;53.496;10.020;2024-01-30T02:56:27;2.00;1.00
26051;DHT22;13825;53.496;10.020;2024-01-30T02:58:54;2.00;1.00
26051;DHT22;13825;53.496;10.020;2024-01-30T03:01:21;2.00;1.00
26051;DHT22;13825;53.496;10.020;2024-01-30T03:03:49;1.90;1.00
26051;DHT22;13825;53.496;10.020;2024-01-30T03:06:16;2.00;1.00
26051;DHT22;13825;53.496;10.020;2024-01-30T03:08:45;1.80;1.00
26051;DHT22;13825;53.496;10.020;2024-01-30T03:11:11;1.90;1.00
26051;DHT22;13825;53.496;10.020;2024-01-30T03:13:39;1.80;1.00
26051;DHT22;13825;53.496;10.020;2024-01-30T03:16:06;1.90;1.00
26051;DHT22;13825;53.496;10.020;2024-01-30T03:18:33;1.90;1.00
26051;DHT22;13825;53.496;10.020;2024-01-30T03:20:59;1.90;1.00
26051;DHT22;13825;53.496;10.020;2024-01-30T03:23:26;1.90;1.00
26051;DHT22;13825;53.496;10.020;2024-01-30T03:25:53;1.80;1.00
26051;DHT22;13825;53.496;10.020;2024-01-30T03:28:20;1.80;1.00
26051;DHT22;13825;53.496;10.020;2024-01-30T03:30:48;1.70;1.00
26051;DHT22;13825;53.496;10.020;2024-01-30T03:33:15;1.70;1.00
26051;DHT22;13825;53.496;10.020;2024-01-30T03:35:41;1.70;1.00
26051;DHT22;13825;53.496;10.020;2024-01-30T03:38:08;1.60;1.00
26051;DHT22;13825;53.496;10.020;2024-01-30T03:40:35;1.90;1.00
26051;DHT22;13825;53.496;10.020;2024-01-30T03:43:02;1.60;1.00
26051;DHT22;13825;53.496;10.020;2024-01-30T03:45:36;1.60;1.00
26051;DHT22;13825;53.496;10.020;2024-01-30T03:48:06;1.60;1.00
26051;DHT22;13825;53.496;10.020;2024-01-30T03:50:33;1.50;1.00
26051;DHT22;13825;53.496;10.020;2024-01-30T03:52:59;1.60;1.00
26051;DHT22;13825;53.496;10.020;2024-01-30T03:55:26;1.60;1.00
26051;DHT22;13825;53.496;10.020;2024-01-30T03:57:53;1.60;1.00
26051;DHT22;13825;53.496;10.020;2024-01-30T04:00:20;1.60;1.00
26051;DHT22;13825;53.496;10.020;2024-01-30T04:02:47;1.50;1.10
26051;DHT22;13825;53.496;10.020;2024-01-30T04:05:15;1.60;96.30
26051;DHT22;13825;53.496;10.020;2024-01-30T04:07:42;1.50;90.30
26051;DHT22;13825;53.496;10.020;2024-01-30T04:10:09;1.50;99.90
26051;DHT22;13825;53.496;10.020;2024-01-30T04:12:36;1.60;99.90
26051;DHT22;13825;53.496;10.020;2024-01-30T04:15:06;1.60;99.90
26051;DHT22;13825;53.496;10.020;2024-01-30T04:17:33;1.60;99.90
26051;DHT22;13825;53.496;10.020;2024-01-30T04:20:00;1.70;99.90
26051;DHT22;13825;53.496;10.020;2024-01-30T04:22:28;1.60;99.90
26051;DHT22;13825;53.496;10.020;2024-01-30T04:24:55;1.60;99.90
26051;DHT22;13825;53.496;10.020;2024-01-30T04:27:22;1.40;99.90
26051;DHT22;13825;53.496;10.020;2024-01-30T04:29:48;1.50;99.90
26051;DHT22;13825;53.496;10.020;2024-01-30T04:32:15;1.60;99.90
26051;DHT22;13825;53.496;10.020;2024-01-30T04:34:42;1.70;99.90
26051;DHT22;13825;53.496;10.020;2024-01-30T04:37:09;1.50;95.40
26051;DHT22;13825;53.496;10.020;2024-01-30T04:39:37;1.50;99.90
26051;DHT22;13825;53.496;10.020;2024-01-30T04:42:04;1.40;62.40
26051;DHT22;13825;53.496;10.020;2024-01-30T04:44:31;1.40;45.80
26051;DHT22;13825;53.496;10.020;2024-01-30T04:46:58;1.40;22.70
26051;DHT22;13825;53.496;10.020;2024-01-30T04:49:26;1.30;27.50
26051;DHT22;13825;53.496;10.020;2024-01-30T04:51:56;1.20;39.40
26051;DHT22;13825;53.496;10.020;2024-01-30T04:54:23;1.30;27.30
26051;DHT22;13825;53.496;10.020;2024-01-30T04:56:51;1.30;17.70
26051;DHT22;13825;53.496;10.020;2024-01-30T04:59:18;1.30;14.10
26051;DHT22;13825;53.496;10.020;2024-01-30T05:01:45;1.10;1.00
26051;DHT22;13825;53.496;10.020;2024-01-30T05:04:12;1.20;8.60
26051;DHT22;13825;53.496;10.020;2024-01-30T05:06:38;1.20;15.90
26051;DHT22;13825;53.496;10.020;2024-01-30T05:09:05;1.50;48.70
26051;DHT22;13825;53.496;10.020;2024-01-30T05:11:36;1.30;99.90
26051;DHT22;13825;53.496;10.020;2024-01-30T05:14:04;1.40;99.90
26051;DHT22;13825;53.496;10.020;2024-01-30T05:16:31;1.30;99.90
26051;DHT22;13825;53.496;10.020;2024-01-30T05:18:58;1.30;99.90
26051;DHT22;13825;53.496;10.020;2024-01-30T05:21:26;1.40;99.90
26051;DHT22;13825;53.496;10.020;2024-01-30T05:23:53;1.30;99.90
26051;DHT22;13825;53.496;10.020;2024-01-30T05:26:20;1.60;99.90
26051;DHT22;13825;53.496;10.020;2024-01-30T05:28:48;1.40;99.90
26051;DHT22;13825;53.496;10.020;2024-01-30T05:31:16;1.40;99.90
26051;DHT22;13825;53.496;10.020;2024-01-30T05:33:43;1.30;99.90
26051;DHT22;13825;53.496;10.020;2024-01-30T05:36:11;1.30;99.90
26051;DHT22;13825;53.496;10.020;2024-01-30T05:38:38;1.30;99.90
26051;DHT22;13825;53.496;10.020;2024-01-30T05:41:05;1.30;99.90
26051;DHT22;13825;53.496;10.020;2024-01-30T05:43:31;1.30;50.40
26051;DHT22;13825;53.496;10.020;2024-01-30T05:45:58;1.30;88.40
26051;DHT22;13825;53.496;10.020;2024-01-30T05:48:27;1.20;1.00
26051;DHT22;13825;53.496;10.020;2024-01-30T05:50:54;1.20;1.00
26051;DHT22;13825;53.496;10.020;2024-01-30T05:53:21;1.20;1.00
26051;DHT22;13825;53.496;10.020;2024-01-30T05:55:48;1.20;1.00
26051;DHT22;13825;53.496;10.020;2024-01-30T05:58:18;1.20;1.00
26051;DHT22;13825;53.496;10.020;2024-01-30T06:00:44;1.10;1.00
26051;DHT22;13825;53.496;10.020;2024-01-30T06:03:11;1.20;89.40
26051;DHT22;13825;53.496;10.020;2024-01-30T06:05:40;1.30;99.90
26051;DHT22;13825;53.496;10.020;2024-01-30T06:08:06;1.30;99.90
26051;DHT22;13825;53.496;10.020;2024-01-30T06:10:33;1.50;99.90
26051;DHT22;13825;53.496;10.020;2024-01-30T06:13:00;1.40;99.90
26051;DHT22;13825;53.496;10.020;2024-01-30T06:15:27;1.50;99.90
26051;DHT22;13825;53.496;10.020;2024-01-30T06:17:55;1.70;99.90
26051;DHT22;13825;53.496;10.020;2024-01-30T06:20:24;1.60;99.90
26051;DHT22;13825;53.496;10.020;2024-01-30T06:22:52;1.80;99.90
26051;DHT22;13825;53.496;10.020;2024-01-30T06:25:19;1.80;99.90
26051;DHT22;13825;53.496;10.020;2024-01-30T06:27:46;1.90;99.90
26051;DHT22;13825;53.496;10.020;2024-01-30T06:30:27;1.90;99.90
26051;DHT22;13825;53.496;10.020;2024-01-30T06:32:53;1.90;99.90
26051;DHT22;13825;53.496;10.020;2024-01-30T06:35:20;2.10;99.90
26051;DHT22;13825;53.496;10.020;2024-01-30T06:37:47;2.00;99.90
26051;DHT22;13825;53.496;10.020;2024-01-30T06:40:15;2.20;1.00
26051;DHT22;13825;53.496;10.020;2024-01-30T06:42:42;2.10;1.00
26051;DHT22;13825;53.496;10.020;2024-01-30T06:45:09;2.20;1.00
26051;DHT22;13825;53.496;10.020;2024-01-30T06:47:36;2.30;1.00
26051;DHT22;13825;53.496;10.020;2024-01-30T06:50:03;2.20;1.00
26051;DHT22;13825;53.496;10.020;2024-01-30T06:52:29;2.20;1.00
26051;DHT22;13825;53.496;10.020;2024-01-30T06:54:56;2.10;1.00
26051;DHT22;13825;53.496;10.020;2024-01-30T06:57:24;2.00;1.00
26051;DHT22;13825;53.496;10.020;2024-01-30T06:59:54;2.20;1.00
26051;DHT22;13825;53.496;10.020;2024-01-30T07:02:21;2.30;1.00
26051;DHT22;13825;53.496;10.020;2024-01-30T07:04:48;2.40;1.00
26051;DHT22;13825;53.496;10.020;2024-01-30T07:07:15;2.20;1.00
26051;DHT22;13825;53.496;10.020;2024-01-30T07:09:41;2.20;1.00
26051;DHT22;13825;53.496;10.020;2024-01-30T07:12:08;2.20;1.00
26051;DHT22;13825;53.496;10.020;2024-01-30T07:14:36;2.40;1.00
26051;DHT22;13825;53.496;10.020;2024-01-30T07:17:03;2.30;1.00
26051;DHT22;13825;53.496;10.020;2024-01-30T07:19:31;2.30;1.00
26051;DHT22;13825;53.496;10.020;2024-01-30T07:21:59;2.30;1.00
26051;DHT22;13825;53.496;10.020;2024-01-30T07:24:26;2.30;1.00
26051;DHT22;13825;53.496;10.020;2024-01-30T07:26:53;2.30;1.00
26051;DHT22;13825;53.496;10.020;2024-01-30T07:29:20;2.30;1.00
26051;DHT22;13825;53.496;10.020;2024-01-30T07:31:49;2.40;1.00
26051;DHT22;13825;53.496;10.020;2024-01-30T07:34:16;2.40;1.00
26051;DHT22;13825;53.496;10.020;2024-01-30T07:36:43;2.30;1.00
26051;DHT22;13825;53.496;10.020;2024-01-30T07:39:09;2.40;17.80
26051;DHT22;13825;53.496;10.020;2024-01-30T07:41:36;2.50;1.00
26051;DHT22;13825;53.496;10.020;2024-01-30T07:44:03;2.40;14.30
26051;DHT22;13825;53.496;10.020;2024-01-30T07:46:30;2.50;99.90
26051;DHT22;13825;53.496;10.020;2024-01-30T07:48:58;2.60;70.10
26051;DHT22;13825;53.496;10.020;2024-01-30T07:51:25;2.70;99.90
26051;DHT22;13825;53.496;10.020;2024-01-30T07:53:53;2.80;99.90
26051;DHT22;13825;53.496;10.020;2024-01-30T08:02:28;2.90;99.90
26051;DHT22;13825;53.496;10.020;2024-01-30T08:04:56;3.00;55.80
26051;DHT22;13825;53.496;10.020;2024-01-30T08:07:23;3.20;1.00
26051;DHT22;13825;53.496;10.020;2024-01-30T08:09:50;3.20;1.00
26051;DHT22;13825;53.496;10.020;2024-01-30T08:12:16;3.20;1.00
26051;DHT22;13825;53.496;10.020;2024-01-30T08:14:43;3.20;1.00
26051;DHT22;13825;53.496;10.020;2024-01-30T08:17:10;3.30;1.00
26051;DHT22;13825;53.496;10.020;2024-01-30T08:19:37;3.30;1.00
26051;DHT22;13825;53.496;10.020;2024-01-30T08:22:05;3.30;1.00
26051;DHT22;13825;53.496;10.020;2024-01-30T08:24:32;3.40;1.00
26051;DHT22;13825;53.496;10.020;2024-01-30T08:26:58;3.40;99.90
26051;DHT22;13825;53.496;10.020;2024-01-30T08:29:27;3.50;99.90
26051;DHT22;13825;53.496;10.020;2024-01-30T08:31:54;3.60;99.90
26051;DHT22;13825;53.496;10.020;2024-01-30T08:34:21;3.70;99.90
26051;DHT22;13825;53.496;10.020;2024-01-30T08:36:50;3.60;99.90
26051;DHT22;13825;53.496;10.020;2024-01-30T08:39:18;3.70;99.90
26051;DHT22;13825;53.496;10.020;2024-01-30T08:41:45;3.60;99.90
26051;DHT22;13825;53.496;10.020;2024-01-30T08:44:12;3.70;99.90
26051;DHT22;13825;53.496;10.020;2024-01-30T08:46:39;3.80;99.90
26051;DHT22;13825;53.496;10.020;2024-01-30T08:49:06;3.80;71.70
26051;DHT22;13825;53.496;10.020;2024-01-30T08:51:33;3.80;40.20
26051;DHT22;13825;53.496;10.020;2024-01-30T08:53:59;3.90;11.90
26051;DHT22;13825;53.496;10.020;2024-01-30T08:56:28;4.00;1.00
26051;DHT22;13825;53.496;10.020;2024-01-30T08:58:55;4.10;2.40
26051;DHT22;13825;53.496;10.020;2024-01-30T09:01:22;4.10;1.00
26051;DHT22;13825;53.496;10.020;2024-01-30T09:03:48;4.20;1.00
26051;DHT22;13825;53.496;10.020;2024-01-30T09:06:15;4.20;1.00
26051;DHT22;13825;53.496;10.020;2024-01-30T09:08:44;4.40;1.00
26051;DHT22;13825;53.496;10.020;2024-01-30T09:11:12;4.50;1.00
26051;DHT22;13825;53.496;10.020;2024-01-30T09:13:43;4.50;1.00
26051;DHT22;13825;53.496;10.020;2024-01-30T09:16:10;4.60;1.00
26051;DHT22;13825;53.496;10.020;2024-01-30T09:18:36;4.70;1.00
26051;DHT22;13825;53.496;10.020;2024-01-30T09:21:03;4.80;1.00
26051;DHT22;13825;53.496;10.020;2024-01-30T09:23:30;4.90;1.00
26051;DHT22;13825;53.496;10.020;2024-01-30T09:25:57;4.90;1.00
26051;DHT22;13825;53.496;10.020;2024-01-30T09:28:24;5.20;1.00
26051;DHT22;13825;53.496;10.020;2024-01-30T09:30:53;5.20;1.00
26051;DHT22;13825;53.496;10.020;2024-01-30T09:33:20;5.20;1.00
26051;DHT22;13825;53.496;10.020;2024-01-30T09:35:46;5.30;99.90
26051;DHT22;13825;53.496;10.020;2024-01-30T09:38:13;5.20;99.90
26051;DHT22;13825;53.496;10.020;2024-01-30T09:40:40;5.40;99.90
26051;DHT22;13825;53.496;10.020;2024-01-30T09:43:07;5.40;99.90
26051;DHT22;13825;53.496;10.020;2024-01-30T09:45:34;5.60;99.90
26051;DHT22;13825;53.496;10.020;2024-01-30T09:48:03;5.60;99.90
26051;DHT22;13825;53.496;10.020;2024-01-30T09:50:30;5.70;99.90
26051;DHT22;13825;53.496;10.020;2024-01-30T09:52:57;5.70;99.90
26051;DHT22;13825;53.496;10.020;2024-01-30T09:55:25;5.80;99.90
26051;DHT22;13825;53.496;10.020;2024-01-30T09:57:51;5.80;99.90
26051;DHT22;13825;53.496;10.020;2024-01-30T10:00:18;5.90;98.40
26051;DHT22;13825;53.496;10.020;2024-01-30T10:02:45;5.90;99.90
26051;DHT22;13825;53.496;10.020;2024-01-30T10:05:14;6.10;99.90
26051;DHT22;13825;53.496;10.020;2024-01-30T10:07:49;6.00;99.90
26051;DHT22;13825;53.496;10.020;2024-01-30T10:10:16;6.00;99.90
26051;DHT22;13825;53.496;10.020;2024-01-30T10:12:43;6.10;99.90
26051;DHT22;13825;53.496;10.020;2024-01-30T10:15:10;6.20;99.90
26051;DHT22;13825;53.496;10.020;2024-01-30T10:17:37;6.40;99.90
26051;DHT22;13825;53.496;10.020;2024-01-30T10:20:04;6.40;99.90
26051;DHT22;13825;53.496;10.020;2024-01-30T10:22:32;6.60;99.90
26051;DHT22;13825;53.496;10.020;2024-01-30T10:24:59;6.60;99.90
26051;DHT22;13825;53.496;10.020;2024-01-30T10:27:26;6.70;94.80
26051;DHT22;13825;53.496;10.020;2024-01-30T10:29:54;6.70;30.70
26051;DHT22;13825;53.496;10.020;2024-01-30T10:32:21;6.80;1.00
26051;DHT22;13825;53.496;10.020;2024-01-30T10:34:48;6.90;1.00
26051;DHT22;13825;53.496;10.020;2024-01-30T10:37:15;7.10;1.00
26051;DHT22;13825;53.496;10.020;2024-01-30T10:39:44;7.00;1.00
26051;DHT22;13825;53.496;10.020;2024-01-30T10:42:12;7.10;1.00
26051;DHT22;13825;53.496;10.020;2024-01-30T10:44:43;7.10;1.00
26051;DHT22;13825;53.496;10.020;2024-01-30T10:47:11;7.20;1.00
26051;DHT22;13825;53.496;10.020;2024-01-30T10:49:39;7.20;1.00
26051;DHT22;13825;53.496;10.020;2024-01-30T10:52:07;7.20;1.00
26051;DHT22;13825;53.496;10.020;2024-01-30T10:54:35;7.30;1.00
26051;DHT22;13825;53.496;10.020;2024-01-30T10:57:04;7.30;1.00
26051;DHT22;13825;53.496;10.020;2024-01-30T10:59:31;7.30;1.00
26051;DHT22;13825;53.496;10.020;2024-01-30T11:01:59;7.40;1.00
26051;DHT22;13825;53.496;10.020;2024-01-30T11:04:26;7.50;1.00
26051;DHT22;13825;53.496;10.020;2024-01-30T11:06:53;7.40;1.00
26051;DHT22;13825;53.496;10.020;2024-01-30T11:09:20;7.60;1.00
26051;DHT22;13825;53.496;10.020;2024-01-30T11:11:48;7.70;1.00
26051;DHT22;13825;53.496;10.020;2024-01-30T11:14:16;7.80;1.00
26051;DHT22;13825;53.496;10.020;2024-01-30T11:16:43;7.90;1.00
26051;DHT22;13825;53.496;10.020;2024-01-30T11:19:10;7.90;1.00
26051;DHT22;13825;53.496;10.020;2024-01-30T11:21:40;7.80;1.00
26051;DHT22;13825;53.496;10.020;2024-01-30T11:24:08;7.80;1.00
26051;DHT22;13825;53.496;10.020;2024-01-30T11:26:34;7.80;1.00
26051;DHT22;13825;53.496;10.020;2024-01-30T11:29:02;7.90;1.00
26051;DHT22;13825;53.496;10.020;2024-01-30T11:31:31;7.80;1.00
26051;DHT22;13825;53.496;10.020;2024-01-30T11:33:58;7.90;1.00
26051;DHT22;13825;53.496;10.020;2024-01-30T11:36:25;8.00;1.00
26051;DHT22;13825;53.496;10.020;2024-01-30T11:38:52;7.90;1.00
26051;DHT22;13825;53.496;10.020;2024-01-30T11:41:19;8.10;1.00
26051;DHT22;13825;53.496;10.020;2024-01-30T11:43:51;8.20;1.00
26051;DHT22;13825;53.496;10.020;2024-01-30T11:46:17;8.10;1.00
26051;DHT22;13825;53.496;10.020;2024-01-30T11:48:46;8.00;1.00
26051;DHT22;13825;53.496;10.020;2024-01-30T11:51:12;8.10;1.00
26051;DHT22;13825;53.496;10.020;2024-01-30T11:53:39;8.20;1.00
26051;DHT22;13825;53.496;10.020;2024-01-30T11:56:07;8.30;1.00
26051;DHT22;13825;53.496;10.020;2024-01-30T11:58:34;8.30;1.00
26051;DHT22;13825;53.496;10.020;2024-01-30T12:01:01;8.30;1.00
26051;DHT22;13825;53.496;10.020;2024-01-30T12:03:27;8.30;1.00
26051;DHT22;13825;53.496;10.020;2024-01-30T12:05:56;8.40;1.00
26051;DHT22;13825;53.496;10.020;2024-01-30T12:08:23;8.60;1.00
26051;DHT22;13825;53.496;10.020;2024-01-30T12:10:55;8.50;1.00
26051;DHT22;13825;53.496;10.020;2024-01-30T12:13:22;8.70;1.00
26051;DHT22;13825;53.496;10.020;2024-01-30T12:15:48;8.80;1.00
26051;DHT22;13825;53.496;10.020;2024-01-30T12:18:18;8.80;1.00
26051;DHT22;13825;53.496;10.020;2024-01-30T12:20:45;8.80;1.00
26051;DHT22;13825;53.496;10.020;2024-01-30T12:23:24;8.70;1.00
26051;DHT22;13825;53.496;10.020;2024-01-30T12:26:18;8.90;1.00
26051;DHT22;13825;53.496;10.020;2024-01-30T12:28:48;8.90;1.00
26051;DHT22;13825;53.496;10.020;2024-01-30T12:31:15;8.90;1.00
26051;DHT22;13825;53.496;10.020;2024-01-30T12:33:42;8.80;1.00
26051;DHT22;13825;53.496;10.020;2024-01-30T12:36:08;8.80;1.00
26051;DHT22;13825;53.496;10.020;2024-01-30T12:38:37;8.80;1.00
26051;DHT22;13825;53.496;10.020;2024-01-30T12:41:04;9.00;1.00
26051;DHT22;13825;53.496;10.020;2024-01-30T12:43:33;9.10;1.00
26051;DHT22;13825;53.496;10.020;2024-01-30T12:45:59;9.20;1.00
26051;DHT22;13825;53.496;10.020;2024-01-30T12:48:26;9.20;1.00
26051;DHT22;13825;53.496;10.020;2024-01-30T12:50:54;9.40;1.00
26051;DHT22;13825;53.496;10.020;2024-01-30T12:53:21;9.20;1.00
26051;DHT22;13825;53.496;10.020;2024-01-30T12:55:49;9.30;1.00
26051;DHT22;13825;53.496;10.020;2024-01-30T12:58:15;9.40;1.00
26051;DHT22;13825;53.496;10.020;2024-01-30T13:00:46;9.30;1.00
26051;DHT22;13825;53.496;10.020;2024-01-30T13:03:12;9.30;1.00
26051;DHT22;13825;53.496;10.020;2024-01-30T13:05:39;9.20;1.00
26051;DHT22;13825;53.496;10.020;2024-01-30T13:08:06;9.30;1.00
26051;DHT22;13825;53.496;10.020;2024-01-30T13:10:33;9.30;1.00
26051;DHT22;13825;53.496;10.020;2024-01-30T13:13:01;9.30;1.00
26051;DHT22;13825;53.496;10.020;2024-01-30T13:15:28;9.20;1.00
26051;DHT22;13825;53.496;10.020;2024-01-30T13:17:54;9.20;1.00
26051;DHT22;13825;53.496;10.020;2024-01-30T13:20:21;9.20;1.00
26051;DHT22;13825;53.496;10.020;2024-01-30T13:22:48;9.20;1.00
26051;DHT22;13825;53.496;10.020;2024-01-30T13:25:15;9.20;1.00
26051;DHT22;13825;53.496;10.020;2024-01-30T13:27:42;9.00;1.00
26051;DHT22;13825;53.496;10.020;2024-01-30T13:30:10;9.20;1.00
26051;DHT22;13825;53.496;10.020;2024-01-30T13:32:37;9.20;1.00
26051;DHT22;13825;53.496;10.020;2024-01-30T13:35:06;9.30;1.00
26051;DHT22;13825;53.496;10.020;2024-01-30T13:37:33;9.30;1.00
26051;DHT22;13825;53.496;10.020;2024-01-30T13:40:00;9.30;1.00
26051;DHT22;13825;53.496;10.020;2024-01-30T13:42:26;9.20;1.00
26051;DHT22;13825;53.496;10.020;2024-01-30T13:44:53;9.20;1.00
26051;DHT22;13825;53.496;10.020;2024-01-30T13:47:21;9.10;1.00
26051;DHT22;13825;53.496;10.020;2024-01-30T13:49:48;9.10;1.00
26051;DHT22;13825;53.496;10.020;2024-01-30T13:52:15;9.20;1.00
26051;DHT22;13825;53.496;10.020;2024-01-30T13:54:42;9.20;1.00
26051;DHT22;13825;53.496;10.020;2024-01-30T13:57:09;9.20;1.00
26051;DHT22;13825;53.496;10.020;2024-01-30T13:59:37;9.10;1.00
26051;DHT22;13825;53.496;10.020;2024-01-30T14:02:04;9.20;1.00
26051;DHT22;13825;53.496;10.020;2024-01-30T14:04:32;9.30;1.00
26051;DHT22;13825;53.496;10.020;2024-01-30T14:06:59;9.30;1.00
26051;DHT22;13825;53.496;10.020;2024-01-30T14:09:26;9.20;1.00
26051;DHT22;13825;53.496;10.020;2024-01-30T14:11:52;9.40;1.00
26051;DHT22;13825;53.496;10.020;2024-01-30T14:14:19;9.30;1.00
26051;DHT22;13825;53.496;10.020;2024-01-30T14:16:46;9.20;1.00
26051;DHT22;13825;53.496;10.020;2024-01-30T14:19:12;9.20;1.00
26051;DHT22;13825;53.496;10.020;2024-01-30T14:21:40;9.20;1.00
26051;DHT22;13825;53.496;10.020;2024-01-30T14:24:07;8.90;1.00
26051;DHT22;13825;53.496;10.020;2024-01-30T14:26:34;9.20;1.00
26051;DHT22;13825;53.496;10.020;2024-01-30T14:29:02;9.10;1.00
26051;DHT22;13825;53.496;10.020;2024-01-30T14:31:31;9.10;1.00
26051;DHT22;13825;53.496;10.020;2024-01-30T14:33:58;9.10;1.00
26051;DHT22;13825;53.496;10.020;2024-01-30T14:36:28;9.10;1.00
26051;DHT22;13825;53.496;10.020;2024-01-30T14:38:56;9.10;1.00
26051;DHT22;13825;53.496;10.020;2024-01-30T14:41:23;9.20;1.00
26051;DHT22;13825;53.496;10.020;2024-01-30T14:43:50;9.20;1.00
26051;DHT22;13825;53.496;10.020;2024-01-30T14:46:16;9.20;1.00
26051;DHT22;13825;53.496;10.020;2024-01-30T14:48:43;9.20;1.00
26051;DHT22;13825;53.496;10.020;2024-01-30T14:51:10;9.30;1.00
26051;DHT22;13825;53.496;10.020;2024-01-30T14:53:37;9.20;1.00
26051;DHT22;13825;53.496;10.020;2024-01-30T14:56:05;9.10;1.00
26051;DHT22;13825;53.496;10.020;2024-01-30T14:58:35;9.20;1.00
26051;DHT22;13825;53.496;10.020;2024-01-30T15:01:02;9.00;1.00
26051;DHT22;13825;53.496;10.020;2024-01-30T15:03:29;9.20;1.00
26051;DHT22;13825;53.496;10.020;2024-01-30T15:05:56;9.10;1.00
26051;DHT22;13825;53.496;10.020;2024-01-30T15:08:28;9.20;1.00
26051;DHT22;13825;53.496;10.020;2024-01-30T15:10:55;9.10;1.00
26051;DHT22;13825;53.496;10.020;2024-01-30T15:13:24;9.10;61.30
26051;DHT22;13825;53.496;10.020;2024-01-30T15:15:55;9.20;2.70
26051;DHT22;13825;53.496;10.020;2024-01-30T15:18:29;9.10;22.60
26051;DHT22;13825;53.496;10.020;2024-01-30T15:20:56;9.10;56.80
26051;DHT22;13825;53.496;10.020;2024-01-30T15:23:29;9.10;95.30
26051;DHT22;13825;53.496;10.020;2024-01-30T15:26:00;9.10;94.10
26051;DHT22;13825;53.496;10.020;2024-01-30T15:28:35;9.20;99.90
26051;DHT22;13825;53.496;10.020;2024-01-30T15:31:16;9.10;83.70
26051;DHT22;13825;53.496;10.020;2024-01-30T15:33:45;9.20;99.90
26051;DHT22;13825;53.496;10.020;2024-01-30T15:36:12;9.20;99.90
26051;DHT22;13825;53.496;10.020;2024-01-30T15:38:39;9.20;99.90
26051;DHT22;13825;53.496;10.020;2024-01-30T15:41:07;9.20;99.90
26051;DHT22;13825;53.496;10.020;2024-01-30T15:43:41;9.20;99.90
26051;DHT22;13825;53.496;10.020;2024-01-30T15:46:08;9.30;99.90
26051;DHT22;13825;53.496;10.020;2024-01-30T15:48:39;9.30;99.90